Richland, Illinois
Current Conditions -  °F | °C
As of 9:52 AM on Sunday 25 Jan 2015 (Local Time) from KSPI Reporting Station
Overcast Overcast  
Wind Chill: 36°   Ceiling: 3700
Heat Index: 42°   Visibility: 10mi
Dew Point: 39°   Wind: 12mph
Humidity: 89%   Direction: 40°NE
Pressure: 29.61"   Gusts: NA
Location:  39.8458°N, 89.8743°W
Report Text: KSPI 251552Z 04010KT 10SM OVC037 06/04 A2961 RMK AO2 RAE44 SLP029 P0001 T00560039
Loading
Personal Weather Stations






























Interactive Weather Map New forecast layout! Learn more

10-Day Weather Forecast

Advertisements
Track Severe Weather on mobile